Terminal Aerodrome Forecast
Issued by NWS

Home | Current Version | Previous Version | Text Only | Print | Product List | Glossary On
Versions: 1 2 3 4 5 6 7 8 9 10 11 12
578
FTUS45 KTFX 251131
TAFHVR
TAF
KHVR 251131Z 2512/2612 29015G22KT P6SM VCSH SCT015 OVC030
     FM251700 31027G38KT P6SM SCT025 OVC040
     FM260000 32021G29KT P6SM SCT050 BKN090
     FM260300 29011KT P6SM SCT060 BKN100=

USA.gov is the U.S. government's official web portal to all federal, state and local government web resources and services.